»·PEaware :: N717PG KEGE-KASE

N717PG :: KEGE-KASE

FLIGHT INFORMATION

Flight Status: Arrived
Operator: Privately registered:
United States
More flights under this callsign
Pilot: Wausau Flying Service (12986)
Aircraft: CIRRUS SR-22
(SR22)
More flights by this aircraft type
Origin: KEGE Eagle Co Regl
United States
Destination: KASE Aspen-Pitkin Co/Sardy
United States
More flights between these airports :: More routes between these airports
Route: +RLG V361 DBL
File this flight plan on PilotEdge
Remarks: DEPART VIA VCOA
Altitude:
(Current/Filed)
14,000ft
Speed:
(Current/Filed)
170kts
Departed: 14-Dec-17 02:48 PM
Arrived: 14-Dec-17 03:13 PM
Distance/Time
Traveled:
25nm/0:24
Distance/Time
To Go:
Arrived

Flight Plot

Page will automatically refresh every two minutes.

Flight plan parsing failed; only flown route is shown


Map Options




Map Legend


Flown Route
Filed Route
Departure Airport
Arrival Airport
Navaid (VOR, NDB)
Fix

Horizontal Profiles

Position Reports

Time Latitude Longitude Heading Altitude Ground
Speed
14-Dec-17 14:21 39.641021 -106.906958 321 6542ft 0kts
14-Dec-17 14:22 39.641021 -106.906958 321 6542ft 0kts
14-Dec-17 14:23 39.641021 -106.906958 321 6542ft 0kts
14-Dec-17 14:24 39.641021 -106.906958 321 6542ft 0kts
14-Dec-17 14:25 39.641021 -106.906958 321 6542ft 0kts
14-Dec-17 14:26 39.641021 -106.906958 321 6542ft 0kts
14-Dec-17 14:27 39.641021 -106.906958 321 6542ft 0kts
14-Dec-17 14:28 39.641021 -106.906958 321 6542ft 0kts
14-Dec-17 14:29 39.641021 -106.906958 321 6542ft 0kts
14-Dec-17 14:30 39.641021 -106.906958 321 6542ft 0kts
14-Dec-17 14:31 39.641021 -106.906958 321 6542ft 0kts
14-Dec-17 14:32 39.641021 -106.906958 321 6542ft 0kts
14-Dec-17 14:33 39.641021 -106.906958 321 6542ft 0kts
14-Dec-17 14:34 39.641021 -106.906958 321 6542ft 0kts
14-Dec-17 14:35 39.641021 -106.906958 321 6542ft 0kts
14-Dec-17 14:36 39.641021 -106.906958 321 6542ft 0kts
14-Dec-17 14:37 39.641021 -106.906958 321 6542ft 0kts
14-Dec-17 14:38 39.641021 -106.906958 321 6542ft 0kts
14-Dec-17 14:39 39.641021 -106.906958 321 6542ft 0kts
14-Dec-17 14:40 39.641021 -106.906958 321 6542ft 0kts
14-Dec-17 14:41 39.641021 -106.906958 321 6542ft 0kts
14-Dec-17 14:42 39.641021 -106.906958 321 6542ft 0kts
14-Dec-17 14:43 39.641021 -106.906958 321 6542ft 0kts
14-Dec-17 14:44 39.641021 -106.906958 321 6542ft 0kts
14-Dec-17 14:45 39.641021 -106.906958 321 6542ft 0kts
14-Dec-17 14:46 39.641021 -106.906958 321 6542ft 0kts
14-Dec-17 14:47 39.642481 -106.907252 29 6542ft 8kts
14-Dec-17 14:48 39.643703 -106.901922 336 6542ft 0kts
14-Dec-17 14:49 39.643703 -106.901922 336 6542ft 0kts
14-Dec-17 14:50 39.643703 -106.901922 336 6542ft 0kts
14-Dec-17 14:51 39.643703 -106.901922 336 6542ft 0kts
14-Dec-17 14:52 39.643703 -106.901922 336 6542ft 0kts
14-Dec-17 14:53 39.643836 -106.901946 4 6542ft 6kts
14-Dec-17 14:54 39.643135 -106.913962 262 6616ft 93kts
14-Dec-17 14:55 39.634190 -106.946242 197 7514ft 111kts
14-Dec-17 14:56 39.625218 -106.914413 78 8482ft 123kts
14-Dec-17 14:57 39.636116 -106.872958 49 9434ft 121kts
14-Dec-17 14:58 39.654111 -106.886997 266 10317ft 109kts
14-Dec-17 14:59 39.632066 -106.900323 129 11095ft 119kts
14-Dec-17 15:00 39.636874 -106.860185 50 11850ft 120kts
14-Dec-17 15:01 39.664600 -106.839167 35 12638ft 113kts
14-Dec-17 15:02 39.689548 -106.813092 40 13331ft 115kts
14-Dec-17 15:03 39.715166 -106.783354 40 13846ft 126kts
14-Dec-17 15:04 39.713142 -106.748144 175 14010ft 153kts
14-Dec-17 15:05 39.669927 -106.754161 212 14003ft 160kts
14-Dec-17 15:06 39.630411 -106.780204 206 14000ft 159kts
14-Dec-17 15:07 39.590178 -106.804388 205 14000ft 159kts
14-Dec-17 15:08 39.551127 -106.830343 227 14001ft 157kts
14-Dec-17 15:09 39.521402 -106.871758 227 13351ft 176kts
14-Dec-17 15:10 39.491348 -106.913658 227 13005ft 140kts
14-Dec-17 15:11 39.468377 -106.946341 232 13018ft 116kts
14-Dec-17 15:12 39.437446 -106.951948 175 13040ft 117kts
14-Dec-17 15:12 39.408426 -106.948158 174 13040ft 138kts
14-Dec-17 15:13 39.369032 -106.937675 166 13001ft 135kts
14-Dec-17 15:15 39.329563 -106.918013 157 11759ft 126kts
14-Dec-17 15:15 39.306246 -106.907702 166 11207ft 120kts
14-Dec-17 15:17 39.269280 -106.891144 161 9526ft 111kts
14-Dec-17 15:18 39.237458 -106.875506 164 8118ft 117kts
14-Dec-17 15:18 39.221051 -106.867397 105 7819ft 22kts
14-Dec-17 15:19 39.222533 -106.867338 326 7819ft 0kts

Navigation Log

Ident Type
Flight plan parsing failed, navigation log unavailable